sensor_id;sensor_type;location;lat;lon;timestamp;pressure;altitude;pressure_sealevel;temperature;humidity
12182;BME280;6154;51.550;12.138;2022-07-29T00:01:41;100685.44;;;21.02;39.99
12182;BME280;6154;51.550;12.138;2022-07-29T00:04:10;100683.44;;;21.04;40.15
12182;BME280;6154;51.550;12.138;2022-07-29T00:06:40;100681.63;;;21.05;40.28
12182;BME280;6154;51.550;12.138;2022-07-29T00:09:08;100674.53;;;21.04;40.27
12182;BME280;6154;51.550;12.138;2022-07-29T00:11:37;100681.47;;;21.06;40.04
12182;BME280;6154;51.550;12.138;2022-07-29T00:14:05;100676.09;;;21.06;40.13
12182;BME280;6154;51.550;12.138;2022-07-29T00:16:33;100679.19;;;21.11;39.92
12182;BME280;6154;51.550;12.138;2022-07-29T00:19:02;100673.66;;;21.13;39.99
12182;BME280;6154;51.550;12.138;2022-07-29T00:21:33;100665.44;;;21.14;40.06
12182;BME280;6154;51.550;12.138;2022-07-29T00:24:03;100666.16;;;21.16;40.08
12182;BME280;6154;51.550;12.138;2022-07-29T00:26:31;100665.31;;;21.16;40.34
12182;BME280;6154;51.550;12.138;2022-07-29T00:28:59;100658.34;;;21.13;40.82
12182;BME280;6154;51.550;12.138;2022-07-29T00:31:47;100661.19;;;21.12;40.46
12182;BME280;6154;51.550;12.138;2022-07-29T00:34:15;100650.87;;;21.07;40.55
12182;BME280;6154;51.550;12.138;2022-07-29T00:37:01;100655.25;;;21.08;40.67
12182;BME280;6154;51.550;12.138;2022-07-29T00:39:30;100647.03;;;21.10;40.70
12182;BME280;6154;51.550;12.138;2022-07-29T00:41:58;100644.06;;;21.03;40.98
12182;BME280;6154;51.550;12.138;2022-07-29T00:44:26;100638.56;;;21.05;40.70
12182;BME280;6154;51.550;12.138;2022-07-29T00:46:54;100646.06;;;21.01;40.92
12182;BME280;6154;51.550;12.138;2022-07-29T00:49:22;100636.16;;;21.02;40.98
12182;BME280;6154;51.550;12.138;2022-07-29T00:51:51;100626.53;;;20.99;40.97
12182;BME280;6154;51.550;12.138;2022-07-29T00:54:19;100625.84;;;20.97;41.13
12182;BME280;6154;51.550;12.138;2022-07-29T00:56:49;100616.06;;;20.96;41.15
12182;BME280;6154;51.550;12.138;2022-07-29T00:59:17;100613.81;;;20.91;42.40
12182;BME280;6154;51.550;12.138;2022-07-29T01:01:45;100600.81;;;20.87;42.10
12182;BME280;6154;51.550;12.138;2022-07-29T01:04:13;100606.47;;;20.84;42.24
12182;BME280;6154;51.550;12.138;2022-07-29T01:06:43;100601.50;;;20.89;42.15
12182;BME280;6154;51.550;12.138;2022-07-29T01:09:11;100618.66;;;20.88;42.52
12182;BME280;6154;51.550;12.138;2022-07-29T01:11:40;100609.97;;;20.94;41.66
12182;BME280;6154;51.550;12.138;2022-07-29T01:14:11;100607.00;;;20.97;41.54
12182;BME280;6154;51.550;12.138;2022-07-29T01:16:44;100606.44;;;20.93;43.52
12182;BME280;6154;51.550;12.138;2022-07-29T01:19:37;100606.84;;;20.99;43.11
12182;BME280;6154;51.550;12.138;2022-07-29T01:22:23;100608.00;;;20.96;45.78
12182;BME280;6154;51.550;12.138;2022-07-29T01:25:09;100608.84;;;20.97;43.78
12182;BME280;6154;51.550;12.138;2022-07-29T01:27:43;100603.31;;;20.98;44.60
12182;BME280;6154;51.550;12.138;2022-07-29T01:30:14;100602.78;;;20.94;42.35
12182;BME280;6154;51.550;12.138;2022-07-29T01:32:47;100600.19;;;20.93;42.31
12182;BME280;6154;51.550;12.138;2022-07-29T01:35:20;100602.47;;;20.98;42.72
12182;BME280;6154;51.550;12.138;2022-07-29T01:37:55;100595.41;;;20.97;42.32
12182;BME280;6154;51.550;12.138;2022-07-29T01:40:29;100590.72;;;20.99;42.36
12182;BME280;6154;51.550;12.138;2022-07-29T01:43:05;100588.31;;;20.95;42.66
12182;BME280;6154;51.550;12.138;2022-07-29T01:45:40;100592.13;;;20.93;43.16
12182;BME280;6154;51.550;12.138;2022-07-29T01:48:12;100599.66;;;20.89;42.82
12182;BME280;6154;51.550;12.138;2022-07-29T01:50:46;100588.19;;;20.87;42.72
12182;BME280;6154;51.550;12.138;2022-07-29T01:53:21;100590.19;;;20.85;43.18
12182;BME280;6154;51.550;12.138;2022-07-29T01:55:51;100584.66;;;20.87;43.80
12182;BME280;6154;51.550;12.138;2022-07-29T01:58:25;100577.75;;;20.84;41.88
12182;BME280;6154;51.550;12.138;2022-07-29T02:00:57;100584.25;;;20.82;42.08
12182;BME280;6154;51.550;12.138;2022-07-29T02:03:27;100583.25;;;20.83;42.21
12182;BME280;6154;51.550;12.138;2022-07-29T02:05:56;100580.84;;;20.80;42.21
12182;BME280;6154;51.550;12.138;2022-07-29T02:08:26;100582.69;;;20.79;42.22
12182;BME280;6154;51.550;12.138;2022-07-29T02:10:56;100582.69;;;20.79;42.26
12182;BME280;6154;51.550;12.138;2022-07-29T02:13:27;100584.00;;;20.75;42.37
12182;BME280;6154;51.550;12.138;2022-07-29T02:15:58;100587.81;;;20.73;42.31
12182;BME280;6154;51.550;12.138;2022-07-29T02:18:30;100589.78;;;20.71;42.69
12182;BME280;6154;51.550;12.138;2022-07-29T02:20:59;100588.94;;;20.70;42.64
12182;BME280;6154;51.550;12.138;2022-07-29T02:23:30;100576.50;;;20.69;42.71
12182;BME280;6154;51.550;12.138;2022-07-29T02:26:17;100583.03;;;20.66;42.77
12182;BME280;6154;51.550;12.138;2022-07-29T02:28:46;100584.12;;;20.64;42.90
12182;BME280;6154;51.550;12.138;2022-07-29T02:31:18;100579.34;;;20.58;43.79
12182;BME280;6154;51.550;12.138;2022-07-29T02:33:47;100573.84;;;20.59;43.67
12182;BME280;6154;51.550;12.138;2022-07-29T02:36:17;100576.81;;;20.56;43.01
12182;BME280;6154;51.550;12.138;2022-07-29T02:38:49;100581.34;;;20.56;42.95
12182;BME280;6154;51.550;12.138;2022-07-29T02:41:20;100572.56;;;20.54;42.86
12182;BME280;6154;51.550;12.138;2022-07-29T02:43:54;100568.06;;;20.54;42.89
12182;BME280;6154;51.550;12.138;2022-07-29T02:46:30;100562.69;;;20.54;43.85
12182;BME280;6154;51.550;12.138;2022-07-29T02:49:02;100566.06;;;20.56;43.97
12182;BME280;6154;51.550;12.138;2022-07-29T02:51:41;100566.34;;;20.53;43.37
12182;BME280;6154;51.550;12.138;2022-07-29T02:54:18;100567.75;;;20.57;44.32
12182;BME280;6154;51.550;12.138;2022-07-29T02:56:48;100569.59;;;20.57;43.23
12182;BME280;6154;51.550;12.138;2022-07-29T02:59:22;100566.06;;;20.56;42.94
12182;BME280;6154;51.550;12.138;2022-07-29T03:01:55;100570.03;;;20.52;43.68
12182;BME280;6154;51.550;12.138;2022-07-29T03:04:24;100562.69;;;20.54;43.43
12182;BME280;6154;51.550;12.138;2022-07-29T03:06:58;100560.84;;;20.55;43.34
12182;BME280;6154;51.550;12.138;2022-07-29T03:09:27;100560.00;;;20.54;44.01
12182;BME280;6154;51.550;12.138;2022-07-29T03:11:57;100554.72;;;20.53;43.48
12182;BME280;6154;51.550;12.138;2022-07-29T03:14:26;100550.19;;;20.53;43.51
12182;BME280;6154;51.550;12.138;2022-07-29T03:16:57;100543.13;;;20.52;43.68
12182;BME280;6154;51.550;12.138;2022-07-29T03:19:26;100545.56;;;20.46;43.98
12182;BME280;6154;51.550;12.138;2022-07-29T03:21:56;100546.09;;;20.39;44.19
12182;BME280;6154;51.550;12.138;2022-07-29T03:24:29;100534.66;;;20.28;45.04
12182;BME280;6154;51.550;12.138;2022-07-29T03:26:58;100541.75;;;20.19;46.19
12182;BME280;6154;51.550;12.138;2022-07-29T03:29:27;100545.72;;;20.15;44.80
12182;BME280;6154;51.550;12.138;2022-07-29T03:32:02;100553.34;;;20.20;44.37
12182;BME280;6154;51.550;12.138;2022-07-29T03:34:35;100552.06;;;20.24;44.31
12182;BME280;6154;51.550;12.138;2022-07-29T03:37:05;100557.03;;;20.28;43.86
12182;BME280;6154;51.550;12.138;2022-07-29T03:39:38;100561.25;;;20.31;43.92
12182;BME280;6154;51.550;12.138;2022-07-29T03:42:10;100564.62;;;20.33;44.09
12182;BME280;6154;51.550;12.138;2022-07-29T03:44:43;100561.84;;;20.34;44.02
12182;BME280;6154;51.550;12.138;2022-07-29T03:47:14;100555.03;;;20.30;44.83
12182;BME280;6154;51.550;12.138;2022-07-29T03:49:44;100563.97;;;20.21;44.86
12182;BME280;6154;51.550;12.138;2022-07-29T03:52:16;100567.94;;;20.07;46.11
12182;BME280;6154;51.550;12.138;2022-07-29T03:54:44;100561.72;;;19.97;45.58
12182;BME280;6154;51.550;12.138;2022-07-29T03:57:14;100568.09;;;19.96;45.25
12182;BME280;6154;51.550;12.138;2022-07-29T03:59:44;100557.19;;;19.98;45.01
12182;BME280;6154;51.550;12.138;2022-07-29T04:02:14;100570.31;;;20.01;44.71
12182;BME280;6154;51.550;12.138;2022-07-29T04:04:48;100574.56;;;20.03;45.10
12182;BME280;6154;51.550;12.138;2022-07-29T04:07:16;100576.16;;;20.06;44.82
12182;BME280;6154;51.550;12.138;2022-07-29T04:09:44;100573.16;;;20.09;44.86
12182;BME280;6154;51.550;12.138;2022-07-29T04:12:13;100570.03;;;20.14;44.77
12182;BME280;6154;51.550;12.138;2022-07-29T04:14:41;100565.78;;;20.21;44.73
12182;BME280;6154;51.550;12.138;2022-07-29T04:17:09;100572.44;;;20.26;44.83
12182;BME280;6154;51.550;12.138;2022-07-29T04:19:38;100575.13;;;20.36;44.49
12182;BME280;6154;51.550;12.138;2022-07-29T04:22:06;100577.94;;;20.44;44.71
12182;BME280;6154;51.550;12.138;2022-07-29T04:24:34;100574.69;;;20.50;44.54
12182;BME280;6154;51.550;12.138;2022-07-29T04:27:02;100574.81;;;20.58;44.59
12182;BME280;6154;51.550;12.138;2022-07-29T04:29:31;100575.66;;;20.69;44.61
12182;BME280;6154;51.550;12.138;2022-07-29T04:31:58;100575.94;;;20.75;44.55
12182;BME280;6154;51.550;12.138;2022-07-29T04:34:27;100583.13;;;20.84;44.43
12182;BME280;6154;51.550;12.138;2022-07-29T04:36:56;100585.75;;;20.94;44.31
12182;BME280;6154;51.550;12.138;2022-07-29T04:39:24;100588.84;;;20.99;44.24
12182;BME280;6154;51.550;12.138;2022-07-29T04:41:56;100587.97;;;21.08;44.24
12182;BME280;6154;51.550;12.138;2022-07-29T04:44:24;100579.91;;;21.08;44.74
12182;BME280;6154;51.550;12.138;2022-07-29T04:46:56;100588.09;;;21.16;44.47
12182;BME280;6154;51.550;12.138;2022-07-29T04:49:25;100586.78;;;21.20;44.85
12182;BME280;6154;51.550;12.138;2022-07-29T04:51:53;100590.00;;;21.34;44.31
12182;BME280;6154;51.550;12.138;2022-07-29T04:54:22;100587.31;;;21.34;44.77
12182;BME280;6154;51.550;12.138;2022-07-29T04:56:52;100590.41;;;21.39;44.62
12182;BME280;6154;51.550;12.138;2022-07-29T04:59:20;100590.88;;;21.52;44.45
12182;BME280;6154;51.550;12.138;2022-07-29T05:01:48;100596.16;;;21.71;44.14
12182;BME280;6154;51.550;12.138;2022-07-29T05:04:16;100603.50;;;21.79;44.20
12182;BME280;6154;51.550;12.138;2022-07-29T05:06:45;100584.81;;;21.95;44.33
12182;BME280;6154;51.550;12.138;2022-07-29T05:09:14;100581.75;;;22.08;44.02
12182;BME280;6154;51.550;12.138;2022-07-29T05:11:43;100588.97;;;22.25;44.08
12182;BME280;6154;51.550;12.138;2022-07-29T05:14:13;100589.63;;;22.45;43.82
12182;BME280;6154;51.550;12.138;2022-07-29T05:16:41;100581.88;;;22.68;43.47
12182;BME280;6154;51.550;12.138;2022-07-29T05:19:10;100579.28;;;22.84;43.20
12182;BME280;6154;51.550;12.138;2022-07-29T05:21:40;100584.16;;;23.07;42.80
12182;BME280;6154;51.550;12.138;2022-07-29T05:24:08;100577.09;;;23.22;42.70
12182;BME280;6154;51.550;12.138;2022-07-29T05:26:36;100580.91;;;23.37;42.56
12182;BME280;6154;51.550;12.138;2022-07-29T05:29:06;100579.91;;;23.55;42.19
12182;BME280;6154;51.550;12.138;2022-07-29T05:31:55;100574.91;;;23.60;41.93
12182;BME280;6154;51.550;12.138;2022-07-29T05:34:23;100584.06;;;23.75;41.76
12182;BME280;6154;51.550;12.138;2022-07-29T05:36:51;100587.13;;;23.80;41.76
12182;BME280;6154;51.550;12.138;2022-07-29T05:39:20;100584.75;;;23.93;41.49
12182;BME280;6154;51.550;12.138;2022-07-29T05:42:08;100583.28;;;24.07;41.39
12182;BME280;6154;51.550;12.138;2022-07-29T05:44:38;100584.94;;;24.24;41.12
12182;BME280;6154;51.550;12.138;2022-07-29T05:47:06;100591.25;;;24.33;41.07
12182;BME280;6154;51.550;12.138;2022-07-29T05:49:34;100586.50;;;24.51;40.75
12182;BME280;6154;51.550;12.138;2022-07-29T05:52:02;100583.63;;;24.61;40.60
12182;BME280;6154;51.550;12.138;2022-07-29T05:54:30;100592.94;;;24.67;40.46
12182;BME280;6154;51.550;12.138;2022-07-29T05:56:58;100582.06;;;24.75;40.37
12182;BME280;6154;51.550;12.138;2022-07-29T05:59:26;100579.69;;;24.80;40.28
12182;BME280;6154;51.550;12.138;2022-07-29T06:01:57;100576.97;;;24.88;40.23
12182;BME280;6154;51.550;12.138;2022-07-29T06:04:26;100570.19;;;24.92;40.16
12182;BME280;6154;51.550;12.138;2022-07-29T06:06:54;100577.94;;;24.95;39.99
12182;BME280;6154;51.550;12.138;2022-07-29T06:09:22;100576.25;;;24.94;39.99
12182;BME280;6154;51.550;12.138;2022-07-29T06:11:50;100572.37;;;24.97;39.97
12182;BME280;6154;51.550;12.138;2022-07-29T06:14:19;100568.66;;;24.98;39.86
12182;BME280;6154;51.550;12.138;2022-07-29T06:16:47;100563.22;;;24.98;39.78
12182;BME280;6154;51.550;12.138;2022-07-29T06:19:16;100555.78;;;25.00;39.80
12182;BME280;6154;51.550;12.138;2022-07-29T06:21:45;100558.47;;;25.00;39.79
12182;BME280;6154;51.550;12.138;2022-07-29T06:24:14;100555.09;;;24.98;39.68
12182;BME280;6154;51.550;12.138;2022-07-29T06:26:44;100552.56;;;24.96;39.76
12182;BME280;6154;51.550;12.138;2022-07-29T06:29:12;100549.22;;;24.86;39.85
12182;BME280;6154;51.550;12.138;2022-07-29T06:31:39;100548.50;;;24.92;39.80
12182;BME280;6154;51.550;12.138;2022-07-29T06:34:08;100552.88;;;25.01;39.76
12182;BME280;6154;51.550;12.138;2022-07-29T06:36:38;100547.78;;;25.14;39.70
12182;BME280;6154;51.550;12.138;2022-07-29T06:39:07;100558.09;;;25.19;39.75
12182;BME280;6154;51.550;12.138;2022-07-29T06:41:38;100553.66;;;25.26;39.71
12182;BME280;6154;51.550;12.138;2022-07-29T06:44:08;100561.91;;;25.33;39.55
12182;BME280;6154;51.550;12.138;2022-07-29T06:46:36;100553.78;;;25.33;39.42
12182;BME280;6154;51.550;12.138;2022-07-29T06:49:04;100551.41;;;25.38;39.44
12182;BME280;6154;51.550;12.138;2022-07-29T06:51:32;100552.75;;;25.34;39.42
12182;BME280;6154;51.550;12.138;2022-07-29T06:54:02;100557.50;;;25.40;39.40
12182;BME280;6154;51.550;12.138;2022-07-29T06:56:33;100557.09;;;25.51;39.31
12182;BME280;6154;51.550;12.138;2022-07-29T06:59:07;100562.50;;;25.51;39.34
12182;BME280;6154;51.550;12.138;2022-07-29T07:01:35;100567.13;;;25.73;39.06
12182;BME280;6154;51.550;12.138;2022-07-29T07:04:04;100583.97;;;25.92;39.02
12182;BME280;6154;51.550;12.138;2022-07-29T07:06:32;100590.97;;;26.09;38.87
12182;BME280;6154;51.550;12.138;2022-07-29T07:09:02;100590.81;;;26.25;38.69
12182;BME280;6154;51.550;12.138;2022-07-29T07:11:30;100593.66;;;26.32;38.65
12182;BME280;6154;51.550;12.138;2022-07-29T07:13:59;100603.28;;;26.43;38.63
12182;BME280;6154;51.550;12.138;2022-07-29T07:16:30;100593.78;;;26.61;38.55
12182;BME280;6154;51.550;12.138;2022-07-29T07:18:59;100596.22;;;26.71;38.42
12182;BME280;6154;51.550;12.138;2022-07-29T07:21:27;100596.25;;;26.86;38.36
12182;BME280;6154;51.550;12.138;2022-07-29T07:23:57;100599.09;;;27.07;38.19
12182;BME280;6154;51.550;12.138;2022-07-29T07:26:27;100599.94;;;27.37;37.79
12182;BME280;6154;51.550;12.138;2022-07-29T07:28:56;100587.91;;;27.46;37.73
12182;BME280;6154;51.550;12.138;2022-07-29T07:31:24;100594.91;;;27.70;37.72
12182;BME280;6154;51.550;12.138;2022-07-29T07:33:52;100583.72;;;27.80;37.13
12182;BME280;6154;51.550;12.138;2022-07-29T07:36:21;100579.25;;;27.94;36.78
12182;BME280;6154;51.550;12.138;2022-07-29T07:38:49;100572.63;;;28.24;37.10
12182;BME280;6154;51.550;12.138;2022-07-29T07:41:17;100584.44;;;28.53;36.84
12182;BME280;6154;51.550;12.138;2022-07-29T07:43:46;100580.44;;;28.77;36.28
12182;BME280;6154;51.550;12.138;2022-07-29T07:46:15;100575.63;;;28.79;36.01
12182;BME280;6154;51.550;12.138;2022-07-29T07:48:43;100574.25;;;28.89;36.02
12182;BME280;6154;51.550;12.138;2022-07-29T07:51:11;100572.69;;;29.08;35.83
12182;BME280;6154;51.550;12.138;2022-07-29T07:53:39;100575.16;;;29.03;35.54
12182;BME280;6154;51.550;12.138;2022-07-29T07:56:07;100570.53;;;29.04;35.26
12182;BME280;6154;51.550;12.138;2022-07-29T07:58:38;100576.13;;;29.30;35.49
12182;BME280;6154;51.550;12.138;2022-07-29T08:01:08;100569.53;;;29.53;34.99
12182;BME280;6154;51.550;12.138;2022-07-29T08:03:37;100565.81;;;29.67;34.87
12182;BME280;6154;51.550;12.138;2022-07-29T08:06:06;100566.06;;;29.79;34.91
12182;BME280;6154;51.550;12.138;2022-07-29T08:08:34;100564.41;;;30.04;34.73
12182;BME280;6154;51.550;12.138;2022-07-29T08:11:02;100560.44;;;30.13;34.34
12182;BME280;6154;51.550;12.138;2022-07-29T08:13:35;100563.19;;;30.26;34.58
12182;BME280;6154;51.550;12.138;2022-07-29T08:16:07;100565.94;;;30.40;34.39
12182;BME280;6154;51.550;12.138;2022-07-29T08:18:43;100548.69;;;30.79;34.34
12182;BME280;6154;51.550;12.138;2022-07-29T08:21:12;100554.50;;;31.02;33.98
12182;BME280;6154;51.550;12.138;2022-07-29T08:23:42;100557.62;;;31.12;33.97
12182;BME280;6154;51.550;12.138;2022-07-29T08:26:24;100546.06;;;31.04;33.62
12182;BME280;6154;51.550;12.138;2022-07-29T08:28:52;100552.44;;;30.91;33.92
12182;BME280;6154;51.550;12.138;2022-07-29T08:31:22;100559.63;;;30.66;34.09
12182;BME280;6154;51.550;12.138;2022-07-29T08:33:50;100554.16;;;30.59;34.14
12182;BME280;6154;51.550;12.138;2022-07-29T08:36:18;100552.66;;;30.63;34.05
12182;BME280;6154;51.550;12.138;2022-07-29T08:38:47;100561.50;;;30.72;33.56
12182;BME280;6154;51.550;12.138;2022-07-29T08:41:16;100558.16;;;30.70;33.67
12182;BME280;6154;51.550;12.138;2022-07-29T08:43:45;100552.47;;;30.71;33.39
12182;BME280;6154;51.550;12.138;2022-07-29T08:46:14;100549.31;;;30.74;33.51
12182;BME280;6154;51.550;12.138;2022-07-29T08:48:44;100546.94;;;30.98;33.57
12182;BME280;6154;51.550;12.138;2022-07-29T08:51:13;100537.31;;;30.88;33.20
12182;BME280;6154;51.550;12.138;2022-07-29T08:53:43;100539.81;;;30.97;33.30
12182;BME280;6154;51.550;12.138;2022-07-29T08:56:12;100536.41;;;31.08;33.20
12182;BME280;6154;51.550;12.138;2022-07-29T08:58:40;100538.28;;;31.07;33.13
12182;BME280;6154;51.550;12.138;2022-07-29T09:01:17;100539.47;;;31.31;32.84
12182;BME280;6154;51.550;12.138;2022-07-29T09:03:48;100538.25;;;31.27;32.28
12182;BME280;6154;51.550;12.138;2022-07-29T09:06:17;100535.81;;;31.51;32.22
12182;BME280;6154;51.550;12.138;2022-07-29T09:08:47;100535.69;;;31.70;32.30
12182;BME280;6154;51.550;12.138;2022-07-29T09:11:15;100530.59;;;31.74;32.50
12182;BME280;6154;51.550;12.138;2022-07-29T09:13:43;100534.41;;;31.80;32.30
12182;BME280;6154;51.550;12.138;2022-07-29T09:16:12;100522.06;;;31.95;32.29
12182;BME280;6154;51.550;12.138;2022-07-29T09:19:01;100526.13;;;32.18;32.09
12182;BME280;6154;51.550;12.138;2022-07-29T09:21:40;100523.78;;;32.15;31.75
12182;BME280;6154;51.550;12.138;2022-07-29T09:24:38;100538.78;;;32.12;29.79
12182;BME280;6154;51.550;12.138;2022-07-29T09:27:17;100525.44;;;32.22;30.35
12182;BME280;6154;51.550;12.138;2022-07-29T09:29:46;100533.56;;;32.36;31.23
12182;BME280;6154;51.550;12.138;2022-07-29T09:32:14;100525.00;;;32.50;31.33
12182;BME280;6154;51.550;12.138;2022-07-29T09:34:44;100521.97;;;32.58;30.98
12182;BME280;6154;51.550;12.138;2022-07-29T09:37:25;100516.34;;;32.72;31.12
12182;BME280;6154;51.550;12.138;2022-07-29T09:39:54;100519.72;;;32.92;29.67
12182;BME280;6154;51.550;12.138;2022-07-29T09:42:29;100524.44;;;33.03;30.60
12182;BME280;6154;51.550;12.138;2022-07-29T09:44:59;100516.50;;;32.95;29.74
12182;BME280;6154;51.550;12.138;2022-07-29T09:47:42;100514.84;;;33.12;30.97
12182;BME280;6154;51.550;12.138;2022-07-29T09:50:15;100509.62;;;33.41;29.53
12182;BME280;6154;51.550;12.138;2022-07-29T09:52:48;100510.19;;;33.61;30.38
12182;BME280;6154;51.550;12.138;2022-07-29T09:55:16;100512.88;;;33.80;30.00
12182;BME280;6154;51.550;12.138;2022-07-29T09:57:49;100517.59;;;34.03;30.17
12182;BME280;6154;51.550;12.138;2022-07-29T10:00:18;100512.50;;;34.18;29.53
12182;BME280;6154;51.550;12.138;2022-07-29T10:02:48;100518.09;;;34.35;30.12
12182;BME280;6154;51.550;12.138;2022-07-29T10:05:19;100515.19;;;34.48;29.89
12182;BME280;6154;51.550;12.138;2022-07-29T10:07:49;100504.41;;;34.58;29.46
12182;BME280;6154;51.550;12.138;2022-07-29T10:10:26;100499.97;;;34.69;29.65
12182;BME280;6154;51.550;12.138;2022-07-29T10:12:56;100499.59;;;34.65;29.31
12182;BME280;6154;51.550;12.138;2022-07-29T10:15:35;100501.63;;;34.46;29.55
12182;BME280;6154;51.550;12.138;2022-07-29T10:18:06;100498.28;;;34.56;29.55
12182;BME280;6154;51.550;12.138;2022-07-29T10:20:37;100494.84;;;34.61;29.64
12182;BME280;6154;51.550;12.138;2022-07-29T10:23:05;100496.75;;;34.60;27.67
12182;BME280;6154;51.550;12.138;2022-07-29T10:25:33;100489.53;;;34.82;29.08
12182;BME280;6154;51.550;12.138;2022-07-29T10:28:02;100488.09;;;34.92;29.13
12182;BME280;6154;51.550;12.138;2022-07-29T10:30:30;100478.53;;;34.82;29.09
12182;BME280;6154;51.550;12.138;2022-07-29T10:33:17;100475.75;;;34.94;29.02
12182;BME280;6154;51.550;12.138;2022-07-29T10:36:02;100476.34;;;34.84;26.49
12182;BME280;6154;51.550;12.138;2022-07-29T10:38:51;100479.19;;;35.13;26.65
12182;BME280;6154;51.550;12.138;2022-07-29T10:41:41;100477.75;;;35.10;26.36
12182;BME280;6154;51.550;12.138;2022-07-29T10:44:16;100474.41;;;35.37;26.73
12182;BME280;6154;51.550;12.138;2022-07-29T10:46:50;100471.47;;;35.55;28.15
12182;BME280;6154;51.550;12.138;2022-07-29T10:49:20;100465.81;;;35.62;28.46
12182;BME280;6154;51.550;12.138;2022-07-29T10:52:03;100467.81;;;35.66;28.15
12182;BME280;6154;51.550;12.138;2022-07-29T10:54:53;100465.31;;;35.65;26.32
12182;BME280;6154;51.550;12.138;2022-07-29T10:57:24;100466.06;;;35.77;26.10
12182;BME280;6154;51.550;12.138;2022-07-29T11:00:30;100474.87;;;35.91;27.79
12182;BME280;6154;51.550;12.138;2022-07-29T11:02:59;100464.69;;;35.91;26.13
12182;BME280;6154;51.550;12.138;2022-07-29T11:05:56;100457.69;;;36.01;27.49
12182;BME280;6154;51.550;12.138;2022-07-29T11:08:27;100465.78;;;35.90;24.59
12182;BME280;6154;51.550;12.138;2022-07-29T11:14:09;100454.19;;;35.88;24.84
12182;BME280;6154;51.550;12.138;2022-07-29T11:16:57;100454.16;;;36.05;27.12
12182;BME280;6154;51.550;12.138;2022-07-29T11:19:26;100459.56;;;36.17;24.71
12182;BME280;6154;51.550;12.138;2022-07-29T11:21:57;100453.63;;;36.25;27.13
12182;BME280;6154;51.550;12.138;2022-07-29T11:24:28;100457.13;;;36.37;27.04
12182;BME280;6154;51.550;12.138;2022-07-29T11:27:09;100457.94;;;36.54;26.67
12182;BME280;6154;51.550;12.138;2022-07-29T11:29:47;100454.88;;;36.73;24.57
12182;BME280;6154;51.550;12.138;2022-07-29T11:32:17;100450.37;;;36.67;25.50
12182;BME280;6154;51.550;12.138;2022-07-29T11:35:15;100445.94;;;36.66;26.56
12182;BME280;6154;51.550;12.138;2022-07-29T11:38:24;100444.28;;;36.26;23.91
12182;BME280;6154;51.550;12.138;2022-07-29T11:41:21;100444.94;;;36.50;24.14
12182;BME280;6154;51.550;12.138;2022-07-29T11:43:50;100441.59;;;36.70;23.89
12182;BME280;6154;51.550;12.138;2022-07-29T11:46:44;100450.16;;;36.90;26.35
12182;BME280;6154;51.550;12.138;2022-07-29T11:49:18;100449.38;;;36.73;22.31
12182;BME280;6154;51.550;12.138;2022-07-29T11:51:57;100442.22;;;36.77;24.27
12182;BME280;6154;51.550;12.138;2022-07-29T11:54:32;100440.16;;;36.67;26.32
12182;BME280;6154;51.550;12.138;2022-07-29T11:57:22;100441.81;;;36.85;25.79
12182;BME280;6154;51.550;12.138;2022-07-29T12:00:05;100432.78;;;36.90;25.60
12182;BME280;6154;51.550;12.138;2022-07-29T12:02:39;100435.91;;;36.98;24.73
12182;BME280;6154;51.550;12.138;2022-07-29T12:05:14;100423.19;;;36.97;25.56
12182;BME280;6154;51.550;12.138;2022-07-29T12:08:11;100427.75;;;36.87;25.62
12182;BME280;6154;51.550;12.138;2022-07-29T12:10:41;100420.69;;;36.96;23.55
12182;BME280;6154;51.550;12.138;2022-07-29T12:13:11;100421.03;;;36.99;25.62
12182;BME280;6154;51.550;12.138;2022-07-29T12:15:40;100411.41;;;37.07;24.09
12182;BME280;6154;51.550;12.138;2022-07-29T12:18:15;100409.03;;;37.16;25.43
12182;BME280;6154;51.550;12.138;2022-07-29T12:20:44;100412.06;;;37.14;25.28
12182;BME280;6154;51.550;12.138;2022-07-29T12:23:14;100395.06;;;37.00;25.41
12182;BME280;6154;51.550;12.138;2022-07-29T12:25:44;100399.22;;;37.03;24.72
12182;BME280;6154;51.550;12.138;2022-07-29T12:28:17;100399.16;;;37.20;25.10
12182;BME280;6154;51.550;12.138;2022-07-29T12:30:53;100394.69;;;37.46;24.60
12182;BME280;6154;51.550;12.138;2022-07-29T12:33:25;100388.78;;;37.64;24.79
12182;BME280;6154;51.550;12.138;2022-07-29T12:35:56;100386.28;;;37.62;24.54
12182;BME280;6154;51.550;12.138;2022-07-29T12:38:39;100382.63;;;37.57;23.57
12182;BME280;6154;51.550;12.138;2022-07-29T12:41:08;100385.47;;;37.67;23.94
12182;BME280;6154;51.550;12.138;2022-07-29T12:43:37;100383.28;;;38.01;24.46
12182;BME280;6154;51.550;12.138;2022-07-29T12:46:12;100382.78;;;38.09;24.19
12182;BME280;6154;51.550;12.138;2022-07-29T12:48:42;100383.75;;;38.35;22.43
12182;BME280;6154;51.550;12.138;2022-07-29T12:51:11;100379.94;;;38.46;23.84
12182;BME280;6154;51.550;12.138;2022-07-29T12:53:41;100379.97;;;38.57;24.17
12182;BME280;6154;51.550;12.138;2022-07-29T12:56:15;100380.28;;;38.60;23.41
12182;BME280;6154;51.550;12.138;2022-07-29T12:59:18;100375.50;;;38.45;20.79
12182;BME280;6154;51.550;12.138;2022-07-29T13:01:49;100373.09;;;38.59;21.23
12182;BME280;6154;51.550;12.138;2022-07-29T13:04:25;100381.25;;;38.91;23.46
12182;BME280;6154;51.550;12.138;2022-07-29T13:06:59;100374.81;;;38.75;21.28
12182;BME280;6154;51.550;12.138;2022-07-29T13:09:38;100374.62;;;39.02;22.49
12182;BME280;6154;51.550;12.138;2022-07-29T13:12:07;100371.56;;;38.94;20.34
12182;BME280;6154;51.550;12.138;2022-07-29T13:14:40;100371.22;;;38.75;23.37
12182;BME280;6154;51.550;12.138;2022-07-29T13:17:10;100370.94;;;38.71;22.01
12182;BME280;6154;51.550;12.138;2022-07-29T13:19:39;100361.91;;;39.17;22.97